Time;durP1;ratioP1;P1;durP2;ratioP2;P2;SDS_P1;SDS_P2;PMS_P1;PMS_P2;Temp;Humidity;BMP_temperature;BMP_pressure;BME280_temperature;BME280_humidity;BME280_pressure;Samples;Min_cycle;Max_cycle;Signal;HPM_P1;HPM_P2
2024/02/16 00:01:45;;;;;;;6.45;3.10;;;;;;;;;;7417493;19;19910;-80
2024/02/16 00:04:31;;;;;;;4.65;2.60;;;;;;;;;;7416027;19;19920;-80
2024/02/16 00:07:16;;;;;;;6.22;2.70;;;;;;;;;;7414856;19;19910;-80
2024/02/16 00:10:06;;;;;;;5.82;2.83;;;;;;;;;;7417460;19;19915;-80
2024/02/16 00:12:55;;;;;;;4.20;2.70;;;;;;;;;;7422105;19;19907;-80
2024/02/16 00:15:41;;;;;;;6.22;2.83;;;;;;;;;;7425067;19;19929;-80
2024/02/16 00:18:26;;;;;;;6.45;2.83;;;;;;;;;;7428745;19;19957;-80
2024/02/16 00:21:10;;;;;;;3.92;2.53;;;;;;;;;;7432853;19;19915;-80
2024/02/16 00:24:02;;;;;;;3.58;2.22;;;;;;;;;;7429657;19;19970;-80
2024/02/16 00:26:51;;;;;;;3.55;2.53;;;;;;;;;;7424442;19;20369;-80
2024/02/16 00:29:38;;;;;;;3.50;2.30;;;;;;;;;;7419692;19;19925;-80
2024/02/16 00:32:30;;;;;;;4.00;2.28;;;;;;;;;;7418250;19;19918;-80
2024/02/16 00:35:16;;;;;;;6.85;2.72;;;;;;;;;;7419474;19;20282;-80
2024/02/16 00:38:00;;;;;;;7.15;2.90;;;;;;;;;;7426459;19;19951;-80
2024/02/16 00:40:44;;;;;;;6.72;2.47;;;;;;;;;;7425635;19;19921;-80
2024/02/16 00:43:36;;;;;;;12.25;4.32;;;;;;;;;;7425350;19;19970;-80
2024/02/16 00:46:22;;;;;;;9.80;3.40;;;;;;;;;;7425152;19;19951;-80
2024/02/16 00:49:07;;;;;;;7.35;2.58;;;;;;;;;;7427755;19;19929;-80
2024/02/16 00:51:51;;;;;;;4.63;2.75;;;;;;;;;;7433624;19;19913;-80
2024/02/16 00:54:35;;;;;;;5.90;3.08;;;;;;;;;;7436159;19;19919;-80
2024/02/16 00:57:19;;;;;;;6.22;2.70;;;;;;;;;;7432915;19;19922;-80
2024/02/16 01:00:11;;;;;;;9.75;3.17;;;;;;;;;;7428609;19;19960;-80
2024/02/16 01:03:00;;;;;;;7.80;2.80;;;;;;;;;;7426126;19;19930;-80
2024/02/16 01:05:47;;;;;;;6.80;2.75;;;;;;;;;;7426242;19;19934;-80
2024/02/16 01:08:31;;;;;;;9.45;2.67;;;;;;;;;;7426777;19;19911;-80
2024/02/16 01:11:19;;;;;;;5.50;2.63;;;;;;;;;;7425073;19;19922;-80
2024/02/16 01:14:05;;;;;;;9.13;2.67;;;;;;;;;;7425473;19;19906;-80
2024/02/16 01:16:55;;;;;;;8.63;2.53;;;;;;;;;;7423848;19;20357;-80
2024/02/16 01:19:41;;;;;;;5.60;2.33;;;;;;;;;;7426241;19;19914;-80
2024/02/16 01:22:31;;;;;;;5.25;2.47;;;;;;;;;;7428455;19;19919;-80
2024/02/16 01:25:15;;;;;;;4.53;2.90;;;;;;;;;;7428255;19;20325;-80
2024/02/16 01:27:59;;;;;;;8.93;3.33;;;;;;;;;;7428534;19;19918;-80
2024/02/16 01:30:44;;;;;;;7.18;3.30;;;;;;;;;;7429351;19;19919;-80
2024/02/16 01:33:35;;;;;;;5.22;3.30;;;;;;;;;;7425766;19;19914;-80
2024/02/16 01:36:19;;;;;;;12.63;3.10;;;;;;;;;;7423965;19;19918;-80
2024/02/16 01:39:04;;;;;;;5.00;2.75;;;;;;;;;;7424586;19;19924;-80
2024/02/16 01:41:50;;;;;;;5.00;2.80;;;;;;;;;;7424148;19;19926;-80
2024/02/16 01:44:37;;;;;;;3.95;2.50;;;;;;;;;;7421689;19;19922;-80
2024/02/16 01:47:24;;;;;;;4.25;2.60;;;;;;;;;;7422463;19;19929;-80
2024/02/16 01:50:12;;;;;;;6.50;2.70;;;;;;;;;;7426929;19;19907;-80
2024/02/16 01:52:59;;;;;;;5.53;2.90;;;;;;;;;;7426347;19;19933;-80
2024/02/16 01:55:45;;;;;;;4.43;2.80;;;;;;;;;;7430832;19;19962;-80
2024/02/16 01:58:29;;;;;;;8.10;2.35;;;;;;;;;;7427548;19;20376;-80
2024/02/16 02:01:14;;;;;;;8.13;2.63;;;;;;;;;;7425462;19;19918;-80
2024/02/16 02:04:00;;;;;;;7.30;3.00;;;;;;;;;;7424753;19;19969;-80
2024/02/16 02:06:49;;;;;;;7.25;2.92;;;;;;;;;;7423193;19;19923;-80
2024/02/16 02:09:38;;;;;;;3.85;2.10;;;;;;;;;;7422115;19;19925;-80
2024/02/16 02:12:23;;;;;;;7.50;2.88;;;;;;;;;;7424539;19;19921;-80
2024/02/16 02:15:11;;;;;;;5.65;2.65;;;;;;;;;;7423779;19;19918;-80
2024/02/16 02:17:59;;;;;;;8.32;3.10;;;;;;;;;;7420099;19;19922;-80
2024/02/16 02:20:45;;;;;;;4.63;2.63;;;;;;;;;;7422331;19;20265;-80
2024/02/16 02:23:35;;;;;;;5.15;2.80;;;;;;;;;;7422743;19;19918;-80
2024/02/16 02:26:19;;;;;;;5.38;2.72;;;;;;;;;;7426837;19;19915;-80
2024/02/16 02:29:04;;;;;;;5.53;2.78;;;;;;;;;;7427269;19;19922;-80
2024/02/16 02:31:51;;;;;;;3.20;2.33;;;;;;;;;;7424400;19;19914;-80
2024/02/16 02:34:38;;;;;;;4.78;3.03;;;;;;;;;;7425368;19;19924;-80
2024/02/16 02:37:23;;;;;;;6.07;2.72;;;;;;;;;;7425109;19;19911;-80
2024/02/16 02:40:12;;;;;;;5.65;2.78;;;;;;;;;;7424493;19;19907;-80
2024/02/16 02:42:58;;;;;;;5.72;2.60;;;;;;;;;;7422845;19;19974;-80
2024/02/16 02:45:45;;;;;;;6.38;2.10;;;;;;;;;;7423112;19;19919;-80
2024/02/16 02:48:32;;;;;;;4.78;2.63;;;;;;;;;;7423881;19;19918;-80
2024/02/16 02:51:16;;;;;;;4.28;2.33;;;;;;;;;;7422637;19;19925;-80
2024/02/16 02:54:03;;;;;;;4.63;2.08;;;;;;;;;;7420417;19;19922;-80
2024/02/16 02:56:49;;;;;;;3.78;2.40;;;;;;;;;;7420945;19;19907;-80
2024/02/16 02:59:37;;;;;;;4.05;2.58;;;;;;;;;;7422477;19;19939;-80
2024/02/16 03:02:23;;;;;;;4.18;2.35;;;;;;;;;;7422422;19;19922;-80
2024/02/16 03:05:09;;;;;;;6.40;2.30;;;;;;;;;;7421785;19;19911;-80
2024/02/16 03:07:53;;;;;;;4.72;2.35;;;;;;;;;;7418804;19;19938;-80
2024/02/16 03:10:39;;;;;;;6.47;2.35;;;;;;;;;;7422256;19;19907;-80
2024/02/16 03:13:25;;;;;;;7.18;2.58;;;;;;;;;;7421143;19;20202;-80
2024/02/16 03:16:12;;;;;;;7.32;2.58;;;;;;;;;;7420863;19;19930;-80
2024/02/16 03:18:58;;;;;;;6.68;2.88;;;;;;;;;;7420952;19;19926;-80
2024/02/16 03:21:45;;;;;;;4.55;2.70;;;;;;;;;;7421142;19;19918;-80
2024/02/16 03:24:29;;;;;;;4.75;2.22;;;;;;;;;;7421289;19;19923;-80
2024/02/16 03:27:16;;;;;;;4.40;2.13;;;;;;;;;;7423023;19;19998;-80
2024/02/16 03:30:06;;;;;;;3.95;2.30;;;;;;;;;;7423488;19;19924;-80
2024/02/16 03:32:50;;;;;;;4.53;2.05;;;;;;;;;;7423169;19;19941;-80
2024/02/16 03:35:35;;;;;;;4.70;1.85;;;;;;;;;;7422304;19;19925;-80
2024/02/16 03:38:21;;;;;;;6.90;2.00;;;;;;;;;;7423247;19;19914;-81
2024/02/16 03:41:06;;;;;;;6.32;2.40;;;;;;;;;;7420855;19;19915;-81
2024/02/16 03:43:53;;;;;;;6.22;2.25;;;;;;;;;;7413679;19;19923;-85
2024/02/16 03:46:40;;;;;;;3.63;2.05;;;;;;;;;;7413426;19;20002;-85
2024/02/16 03:49:24;;;;;;;5.20;2.15;;;;;;;;;;7412361;19;19920;-85
2024/02/16 03:52:11;;;;;;;4.55;2.10;;;;;;;;;;7417277;19;19923;-85
2024/02/16 03:54:55;;;;;;;7.57;2.42;;;;;;;;;;7416232;19;19915;-85
2024/02/16 03:57:42;;;;;;;5.93;2.10;;;;;;;;;;7414686;19;19919;-85
2024/02/16 04:00:29;;;;;;;4.32;1.85;;;;;;;;;;7415884;19;21421;-85
2024/02/16 04:03:18;;;;;;;5.85;1.95;;;;;;;;;;7418612;19;19914;-85
2024/02/16 04:06:06;;;;;;;5.47;2.30;;;;;;;;;;7411920;19;20269;-85
2024/02/16 04:08:53;;;;;;;5.07;2.22;;;;;;;;;;7415020;19;20311;-85
2024/02/16 04:11:37;;;;;;;2.65;1.70;;;;;;;;;;7417294;19;19970;-85
2024/02/16 04:14:21;;;;;;;6.25;2.15;;;;;;;;;;7416762;19;20254;-85
2024/02/16 04:17:06;;;;;;;7.43;1.90;;;;;;;;;;7413849;19;19930;-85
2024/02/16 04:19:57;;;;;;;3.90;2.30;;;;;;;;;;7414093;19;19918;-85
2024/02/16 04:22:44;;;;;;;4.90;1.90;;;;;;;;;;7415365;19;19925;-85
2024/02/16 04:25:30;;;;;;;5.88;2.03;;;;;;;;;;7413696;19;19918;-85
2024/02/16 04:28:15;;;;;;;3.75;2.25;;;;;;;;;;7412429;19;19921;-85
2024/02/16 04:30:59;;;;;;;5.60;2.20;;;;;;;;;;7413884;19;20330;-85
2024/02/16 04:33:45;;;;;;;6.95;2.58;;;;;;;;;;7415213;19;19911;-85
2024/02/16 04:36:35;;;;;;;4.50;2.78;;;;;;;;;;7414013;19;19918;-85
2024/02/16 04:39:19;;;;;;;4.90;3.33;;;;;;;;;;7412313;19;19927;-85
2024/02/16 04:42:03;;;;;;;5.30;3.08;;;;;;;;;;7414533;19;19918;-85
2024/02/16 04:44:48;;;;;;;4.97;2.95;;;;;;;;;;7414747;19;19915;-85
2024/02/16 04:47:32;;;;;;;8.32;2.33;;;;;;;;;;7412702;19;19926;-85
2024/02/16 04:50:20;;;;;;;3.55;2.25;;;;;;;;;;7414177;19;19955;-85
2024/02/16 04:53:10;;;;;;;7.47;2.00;;;;;;;;;;7415031;19;20258;-85
2024/02/16 04:55:56;;;;;;;7.90;2.28;;;;;;;;;;7418107;19;19915;-85
2024/02/16 04:58:43;;;;;;;4.57;1.98;;;;;;;;;;7416003;19;19911;-85
2024/02/16 05:01:31;;;;;;;3.28;2.30;;;;;;;;;;7416050;19;19922;-85
2024/02/16 05:04:19;;;;;;;3.17;2.20;;;;;;;;;;7414789;19;19911;-85
2024/02/16 05:07:07;;;;;;;5.00;2.28;;;;;;;;;;7412468;19;19940;-85
2024/02/16 05:09:58;;;;;;;6.45;2.38;;;;;;;;;;7413485;19;19930;-85
2024/02/16 05:12:42;;;;;;;6.53;2.78;;;;;;;;;;7415530;19;19922;-85
2024/02/16 05:15:27;;;;;;;3.45;2.47;;;;;;;;;;7416053;19;19911;-85
2024/02/16 05:18:17;;;;;;;6.13;3.83;;;;;;;;;;7415705;19;19919;-85
2024/02/16 05:21:02;;;;;;;3.97;2.17;;;;;;;;;;7416157;19;19927;-85
2024/02/16 05:23:48;;;;;;;5.68;2.63;;;;;;;;;;7420335;19;19922;-85
2024/02/16 05:26:35;;;;;;;4.95;2.50;;;;;;;;;;7420125;19;19906;-85
2024/02/16 05:29:21;;;;;;;4.80;2.88;;;;;;;;;;7421236;19;19914;-85
2024/02/16 05:32:10;;;;;;;5.82;2.75;;;;;;;;;;7421498;19;20284;-85
2024/02/16 05:34:59;;;;;;;5.60;2.80;;;;;;;;;;7420957;19;19922;-85
2024/02/16 05:37:49;;;;;;;9.02;3.50;;;;;;;;;;7421008;19;19930;-85
2024/02/16 05:40:45;;;;;;;5.70;2.97;;;;;;;;;;7420542;19;20254;-85
2024/02/16 05:43:34;;;;;;;5.05;2.85;;;;;;;;;;7422730;19;20250;-85
2024/02/16 05:46:19;;;;;;;5.70;2.30;;;;;;;;;;7419248;19;20269;-85
2024/02/16 05:49:06;;;;;;;7.25;2.92;;;;;;;;;;7421289;19;20249;-85
2024/02/16 05:52:17;;;;;;;5.80;3.47;;;;;;;;;;7421456;19;20065;-85
2024/02/16 05:55:04;;;;;;;8.35;3.72;;;;;;;;;;7420702;19;20003;-85
2024/02/16 05:57:50;;;;;;;4.55;2.83;;;;;;;;;;7419901;19;19926;-85
2024/02/16 06:00:39;;;;;;;5.15;2.78;;;;;;;;;;7420040;19;19914;-85
2024/02/16 06:03:26;;;;;;;5.25;2.72;;;;;;;;;;7421403;19;20330;-85
2024/02/16 06:06:13;;;;;;;4.78;2.40;;;;;;;;;;7420570;19;19943;-85
2024/02/16 06:08:58;;;;;;;6.35;2.70;;;;;;;;;;7419250;19;19915;-85
2024/02/16 06:11:43;;;;;;;6.72;2.35;;;;;;;;;;7421411;19;19974;-85
2024/02/16 06:14:29;;;;;;;6.90;2.75;;;;;;;;;;7420210;19;20345;-85
2024/02/16 06:17:16;;;;;;;5.63;2.78;;;;;;;;;;7419857;19;20367;-85
2024/02/16 06:20:03;;;;;;;4.50;2.95;;;;;;;;;;7417939;19;19922;-85
2024/02/16 06:22:48;;;;;;;7.55;2.70;;;;;;;;;;7421056;19;19914;-85
2024/02/16 06:25:32;;;;;;;4.43;2.80;;;;;;;;;;7421926;19;19922;-85
2024/02/16 06:28:16;;;;;;;7.72;2.55;;;;;;;;;;7426788;19;20013;-85
2024/02/16 06:31:00;;;;;;;6.05;2.53;;;;;;;;;;7418361;19;19943;-85
2024/02/16 06:33:49;;;;;;;3.75;2.30;;;;;;;;;;7417539;19;19911;-85
2024/02/16 06:36:38;;;;;;;4.03;2.40;;;;;;;;;;7419224;19;20376;-85
2024/02/16 06:39:29;;;;;;;3.58;2.55;;;;;;;;;;7413160;19;19950;-82
2024/02/16 06:42:16;;;;;;;3.67;2.25;;;;;;;;;;7411933;19;19918;-82
2024/02/16 06:45:05;;;;;;;5.28;2.10;;;;;;;;;;7411841;19;19923;-82
2024/02/16 06:47:51;;;;;;;2.90;1.95;;;;;;;;;;7413495;19;20253;-82
2024/02/16 06:50:40;;;;;;;5.70;2.22;;;;;;;;;;7407764;19;19918;-82
2024/02/16 06:53:27;;;;;;;5.38;2.65;;;;;;;;;;7414044;19;20357;-82
2024/02/16 06:56:12;;;;;;;6.68;3.00;;;;;;;;;;7411366;19;20316;-82
2024/02/16 06:58:59;;;;;;;3.55;2.45;;;;;;;;;;7412488;19;19919;-82
2024/02/16 07:01:43;;;;;;;7.32;2.85;;;;;;;;;;7413266;19;20384;-82
2024/02/16 07:04:29;;;;;;;4.18;2.63;;;;;;;;;;7415246;19;19938;-82
2024/02/16 07:07:16;;;;;;;5.85;2.65;;;;;;;;;;7413417;19;19919;-82
2024/02/16 07:10:05;;;;;;;4.28;2.20;;;;;;;;;;7413645;19;19919;-82
2024/02/16 07:12:49;;;;;;;4.72;2.67;;;;;;;;;;7413322;19;19919;-82
2024/02/16 07:15:33;;;;;;;8.25;2.63;;;;;;;;;;7414835;19;19970;-82
2024/02/16 07:18:18;;;;;;;6.97;2.70;;;;;;;;;;7414884;19;19925;-82
2024/02/16 07:21:03;;;;;;;4.53;3.13;;;;;;;;;;7412484;19;19918;-82
2024/02/16 07:23:53;;;;;;;3.95;2.38;;;;;;;;;;7414510;19;19939;-82
2024/02/16 07:26:39;;;;;;;5.88;3.03;;;;;;;;;;7414274;19;20269;-82
2024/02/16 07:29:28;;;;;;;7.82;3.03;;;;;;;;;;7412930;19;20308;-82
2024/02/16 07:32:18;;;;;;;5.65;3.15;;;;;;;;;;7412181;19;20584;-82
2024/02/16 07:35:05;;;;;;;6.70;3.05;;;;;;;;;;7412520;19;19919;-82
2024/02/16 07:37:53;;;;;;;6.50;3.45;;;;;;;;;;7412479;19;19922;-82
2024/02/16 07:40:40;;;;;;;5.50;3.30;;;;;;;;;;7412273;19;19921;-82
2024/02/16 07:43:24;;;;;;;10.27;3.20;;;;;;;;;;7413415;19;20336;-82
2024/02/16 07:46:13;;;;;;;6.43;3.10;;;;;;;;;;7412944;19;19918;-83
2024/02/16 07:48:58;;;;;;;5.03;2.72;;;;;;;;;;7414512;19;20342;-82
2024/02/16 07:51:47;;;;;;;5.60;3.13;;;;;;;;;;7412837;19;19926;-83
2024/02/16 07:54:33;;;;;;;8.60;5.15;;;;;;;;;;7413089;19;19919;-83
2024/02/16 07:57:20;;;;;;;9.05;5.53;;;;;;;;;;7409719;19;19925;-83
2024/02/16 08:00:10;;;;;;;6.50;5.10;;;;;;;;;;7414632;19;19918;-83
2024/02/16 08:02:57;;;;;;;5.90;4.15;;;;;;;;;;7410178;19;20348;-82
2024/02/16 08:05:44;;;;;;;9.07;6.03;;;;;;;;;;7407113;19;19919;-82
2024/02/16 08:08:33;;;;;;;9.38;3.45;;;;;;;;;;7413254;19;19923;-82
2024/02/16 08:11:17;;;;;;;4.93;3.30;;;;;;;;;;7412907;19;19956;-82
2024/02/16 08:14:08;;;;;;;6.63;2.97;;;;;;;;;;7413831;19;19929;-82
2024/02/16 08:16:57;;;;;;;3.72;2.60;;;;;;;;;;7414116;19;20242;-82
2024/02/16 08:19:41;;;;;;;7.45;2.90;;;;;;;;;;7412760;19;20023;-82
2024/02/16 08:22:26;;;;;;;4.70;2.97;;;;;;;;;;7410424;19;19915;-82
2024/02/16 08:25:13;;;;;;;3.40;2.13;;;;;;;;;;7409102;19;20412;-82
2024/02/16 08:27:57;;;;;;;3.20;2.58;;;;;;;;;;7409307;19;19955;-81
2024/02/16 08:30:45;;;;;;;4.90;2.53;;;;;;;;;;7413807;19;20377;-82
2024/02/16 08:33:29;;;;;;;5.47;2.50;;;;;;;;;;7410132;19;19907;-82
2024/02/16 08:36:16;;;;;;;4.50;2.55;;;;;;;;;;7410569;19;19923;-81
2024/02/16 08:39:04;;;;;;;5.60;2.80;;;;;;;;;;7410924;19;19926;-82
2024/02/16 08:41:49;;;;;;;4.80;2.90;;;;;;;;;;7411698;19;19975;-82
2024/02/16 08:44:37;;;;;;;5.00;3.58;;;;;;;;;;7409787;19;19923;-82
2024/02/16 08:47:26;;;;;;;3.80;2.70;;;;;;;;;;7411728;19;19922;-81
2024/02/16 08:50:13;;;;;;;4.97;3.25;;;;;;;;;;7410323;19;20293;-82
2024/02/16 08:53:00;;;;;;;6.97;2.97;;;;;;;;;;7418588;19;19910;-82
2024/02/16 08:55:44;;;;;;;4.20;2.85;;;;;;;;;;7408680;19;19943;-82
2024/02/16 08:58:31;;;;;;;5.82;2.78;;;;;;;;;;7417287;19;19911;-82
2024/02/16 09:01:19;;;;;;;4.43;2.88;;;;;;;;;;7417193;19;19914;-82
2024/02/16 09:04:06;;;;;;;4.32;2.90;;;;;;;;;;7417179;19;19929;-82
2024/02/16 09:06:51;;;;;;;5.70;2.72;;;;;;;;;;7414906;19;20274;-82
2024/02/16 09:09:35;;;;;;;6.70;3.10;;;;;;;;;;7415916;19;19925;-82
2024/02/16 09:12:21;;;;;;;6.65;3.00;;;;;;;;;;7417154;19;19914;-82
2024/02/16 09:15:09;;;;;;;4.78;3.05;;;;;;;;;;7415865;19;19915;-82
2024/02/16 09:17:56;;;;;;;6.45;4.15;;;;;;;;;;7412938;19;19933;-83
2024/02/16 09:20:43;;;;;;;5.20;2.97;;;;;;;;;;7417799;19;19970;-83
2024/02/16 09:23:28;;;;;;;3.85;2.60;;;;;;;;;;7414892;19;19911;-83
2024/02/16 09:26:16;;;;;;;5.63;3.30;;;;;;;;;;7411324;19;20337;-83
2024/02/16 09:29:06;;;;;;;6.22;3.50;;;;;;;;;;7416728;19;20323;-83
2024/02/16 09:31:54;;;;;;;7.13;2.90;;;;;;;;;;7416310;19;19918;-83
2024/02/16 09:34:43;;;;;;;7.25;2.83;;;;;;;;;;7418125;19;19922;-83
2024/02/16 09:37:37;;;;;;;4.07;2.50;;;;;;;;;;7415141;19;19918;-83
2024/02/16 09:40:22;;;;;;;3.75;2.55;;;;;;;;;;7414172;19;19934;-83
2024/02/16 09:46:13;;;;;;;4.45;2.78;;;;;;;;;;7431275;19;19925;-82
2024/02/16 09:49:03;;;;;;;5.10;2.90;;;;;;;;;;7427636;19;19918;-79
2024/02/16 09:51:50;;;;;;;4.82;3.13;;;;;;;;;;7426808;19;20342;-79
2024/02/16 09:54:38;;;;;;;4.80;3.13;;;;;;;;;;7425150;19;19922;-80
2024/02/16 09:57:23;;;;;;;6.45;3.40;;;;;;;;;;7425855;19;19922;-80
2024/02/16 10:00:09;;;;;;;5.50;4.25;;;;;;;;;;7425326;19;20367;-80
2024/02/16 10:02:59;;;;;;;10.48;3.85;;;;;;;;;;7427482;19;19913;-80
2024/02/16 10:05:43;;;;;;;11.93;4.45;;;;;;;;;;7428309;19;19927;-80
2024/02/16 10:08:28;;;;;;;8.70;4.10;;;;;;;;;;7426884;19;19951;-80
2024/02/16 10:11:15;;;;;;;8.25;3.80;;;;;;;;;;7427322;19;19954;-80
2024/02/16 10:14:01;;;;;;;5.88;3.83;;;;;;;;;;7426400;19;19919;-80
2024/02/16 10:16:46;;;;;;;4.25;3.22;;;;;;;;;;7427937;19;19919;-80
2024/02/16 10:19:36;;;;;;;7.65;3.95;;;;;;;;;;7426727;19;19938;-80
2024/02/16 10:22:22;;;;;;;6.00;3.20;;;;;;;;;;7427345;19;19925;-80
2024/02/16 10:25:12;;;;;;;5.68;3.17;;;;;;;;;;7426220;19;20270;-80
2024/02/16 10:27:59;;;;;;;;;;;;;;;;;;7427642;19;19918;-80
2024/02/16 10:30:45;;;;;;;8.70;2.90;;;;;;;;;;7425819;19;20276;-80
2024/02/16 10:33:32;;;;;;;7.35;3.35;;;;;;;;;;7427117;19;19915;-80
2024/02/16 10:36:16;;;;;;;6.07;3.40;;;;;;;;;;7426230;19;20246;-80
2024/02/16 10:39:04;;;;;;;5.32;3.38;;;;;;;;;;7425240;19;19919;-80
2024/02/16 10:41:51;;;;;;;4.15;2.90;;;;;;;;;;7423176;19;19914;-80
2024/02/16 10:44:40;;;;;;;6.05;3.03;;;;;;;;;;7424186;19;19915;-80
2024/02/16 10:47:24;;;;;;;9.20;2.70;;;;;;;;;;7424144;19;19915;-80
2024/02/16 10:50:09;;;;;;;6.35;3.17;;;;;;;;;;7423499;19;20333;-80
2024/02/16 10:52:56;;;;;;;5.35;3.22;;;;;;;;;;7424756;19;19923;-80
2024/02/16 10:55:40;;;;;;;4.85;2.65;;;;;;;;;;7424402;19;19914;-80
2024/02/16 10:58:25;;;;;;;6.57;2.65;;;;;;;;;;7426094;19;20246;-80
2024/02/16 11:01:18;;;;;;;4.20;2.83;;;;;;;;;;7424471;19;19929;-80
2024/02/16 11:04:08;;;;;;;5.22;2.75;;;;;;;;;;7425320;19;19947;-80
2024/02/16 11:06:57;;;;;;;5.32;2.83;;;;;;;;;;7424377;19;19906;-80
2024/02/16 11:09:45;;;;;;;3.95;2.40;;;;;;;;;;7425121;19;19923;-80
2024/02/16 11:12:38;;;;;;;4.38;2.50;;;;;;;;;;7422847;19;19951;-81
2024/02/16 11:15:30;;;;;;;4.47;2.50;;;;;;;;;;7427488;19;19948;-80
2024/02/16 11:18:17;;;;;;;3.38;2.60;;;;;;;;;;7422748;19;19919;-80
2024/02/16 11:21:06;;;;;;;5.80;3.40;;;;;;;;;;7425195;19;19919;-80
2024/02/16 11:23:53;;;;;;;10.30;4.03;;;;;;;;;;7424887;19;19914;-80
2024/02/16 11:26:45;;;;;;;6.68;3.20;;;;;;;;;;7423115;19;19919;-80
2024/02/16 11:29:36;;;;;;;6.25;2.80;;;;;;;;;;7423867;19;19915;-80
2024/02/16 11:32:24;;;;;;;4.10;2.63;;;;;;;;;;7423419;19;19946;-80
2024/02/16 11:35:11;;;;;;;4.07;2.25;;;;;;;;;;7420136;19;19923;-81
2024/02/16 11:38:01;;;;;;;4.70;2.37;;;;;;;;;;7421931;19;19915;-80
2024/02/16 11:40:54;;;;;;;;;;;;;;;;;;7411046;19;19922;-79
2024/02/16 11:43:41;;;;;;;;;;;;;;;;;;7410964;19;19926;-80
2024/02/16 11:46:24;;;;;;;;;;;;;;;;;;7411343;19;19931;-80
2024/02/16 11:49:13;;;;;;;;;;;;;;;;;;7412647;19;19959;-80
2024/02/16 11:52:06;;;;;;;;;;;;;;;;;;7413675;19;19914;-80
2024/02/16 11:54:52;;;;;;;;;;;;;;;;;;7411513;19;19927;-80
2024/02/16 11:57:36;;;;;;;;;;;;;;;;;;7411334;19;19947;-80
2024/02/16 12:00:23;;;;;;;;;;;;;;;;;;7413525;19;19946;-80
2024/02/16 12:03:07;;;;;;;;;;;;;;;;;;7412723;19;19960;-80
2024/02/16 12:05:55;;;;;;;;;;;;;;;;;;7412089;19;19951;-80
2024/02/16 12:08:44;;;;;;;;;;;;;;;;;;7412446;19;19956;-80
2024/02/16 12:11:28;;;;;;;;;;;;;;;;;;7410459;19;19922;-80
2024/02/16 12:14:14;;;;;;;;;;;;;;;;;;7414077;19;19927;-80
2024/02/16 12:17:00;;;;;;;;;;;;;;;;;;7410221;19;19919;-80
2024/02/16 12:19:49;;;;;;;;;;;;;;;;;;7411476;19;19990;-80
2024/02/16 12:22:36;;;;;;;;;;;;;;;;;;7412888;19;20357;-81
2024/02/16 12:25:25;;;;;;;;;;;;;;;;;;7412932;19;19926;-80
2024/02/16 12:28:09;;;;;;;;;;;;;;;;;;7411289;19;19915;-81
2024/02/16 12:30:57;;;;;;;;;;;;;;;;;;7419476;19;19945;-80
2024/02/16 12:33:44;;;;;;;;;;;;;;;;;;7420478;19;20243;-81
2024/02/16 12:36:31;;;;;;;;;;;;;;;;;;7421238;19;19951;-80
2024/02/16 12:39:15;;;;;;;;;;;;;;;;;;7422037;19;19927;-80
2024/02/16 12:42:07;;;;;;;;;;;;;;;;;;7421582;19;19915;-80
2024/02/16 12:44:53;;;;;;;3.20;2.33;;;;;;;;;;7417904;19;20336;-80
2024/02/16 12:47:37;;;;;;;5.32;1.95;;;;;;;;;;7429215;19;19967;-81
2024/02/16 12:50:21;;;;;;;3.85;2.08;;;;;;;;;;7431669;19;20400;-81
2024/02/16 12:53:08;;;;;;;3.65;1.83;;;;;;;;;;7430562;19;19915;-81
2024/02/16 12:55:55;;;;;;;4.97;2.03;;;;;;;;;;7427591;19;19918;-81
2024/02/16 12:58:44;;;;;;;3.30;1.60;;;;;;;;;;7431267;19;19919;-80
2024/02/16 13:01:31;;;;;;;5.00;2.05;;;;;;;;;;7431183;19;19914;-80
2024/02/16 13:04:21;;;;;;;7.03;2.05;;;;;;;;;;7430871;19;19923;-80
2024/02/16 13:07:09;;;;;;;;;;;;;;;;;;7429041;19;19930;-80
2024/02/16 13:09:58;;;;;;;4.13;1.58;;;;;;;;;;7429990;19;19948;-80
2024/02/16 13:13:07;;;;;;;;;;;;;;;;;;;;;
2024/02/16 13:15:58;;;;;;;;;;;;;;;;;;7429131;19;19919;-80
2024/02/16 13:18:55;;;;;;;6.55;1.80;;;;;;;;;;7429888;19;19929;-80
2024/02/16 13:21:46;;;;;;;2.63;1.70;;;;;;;;;;7428343;19;19947;-80
2024/02/16 13:24:36;;;;;;;4.40;1.92;;;;;;;;;;7430770;19;19914;-80
2024/02/16 13:27:26;;;;;;;10.35;1.73;;;;;;;;;;7426468;19;19922;-80
2024/02/16 13:30:14;;;;;;;3.88;2.20;;;;;;;;;;7428036;19;19926;-80
2024/02/16 13:33:03;;;;;;;3.55;1.67;;;;;;;;;;7429621;19;19919;-80
2024/02/16 13:35:50;;;;;;;4.32;2.08;;;;;;;;;;7431171;19;20345;-80
2024/02/16 13:38:34;;;;;;;4.35;2.38;;;;;;;;;;7431653;19;19918;-80
2024/02/16 13:41:24;;;;;;;;;;;;;;;;;;7430913;19;20328;-80
2024/02/16 13:44:08;;;;;;;3.05;1.88;;;;;;;;;;7431819;19;19919;-80
2024/02/16 13:46:55;;;;;;;3.53;1.73;;;;;;;;;;7430276;19;19994;-80
2024/02/16 13:49:44;;;;;;;4.45;1.83;;;;;;;;;;7431778;19;19929;-80
2024/02/16 13:52:31;;;;;;;5.38;1.90;;;;;;;;;;7433369;19;19915;-80
2024/02/16 13:55:18;;;;;;;7.60;1.80;;;;;;;;;;7430088;19;19906;-80
2024/02/16 13:58:02;;;;;;;3.33;1.58;;;;;;;;;;7427087;19;19910;-80
2024/02/16 14:00:46;;;;;;;4.50;1.80;;;;;;;;;;7428372;19;19990;-81
2024/02/16 14:03:30;;;;;;;6.28;1.60;;;;;;;;;;7432052;19;19933;-80
2024/02/16 14:06:20;;;;;;;3.47;1.50;;;;;;;;;;7432746;19;19922;-81
2024/02/16 14:09:08;;;;;;;;;;;;;;;;;;7437543;19;19926;-80
2024/02/16 14:11:58;;;;;;;5.43;1.77;;;;;;;;;;7436942;19;19923;-80
2024/02/16 14:14:43;;;;;;;2.33;1.42;;;;;;;;;;7438502;19;19914;-81
2024/02/16 14:17:29;;;;;;;3.20;1.58;;;;;;;;;;7436644;19;19929;-81
2024/02/16 14:20:16;;;;;;;6.35;1.63;;;;;;;;;;7435593;19;19942;-81
2024/02/16 14:23:07;;;;;;;3.67;1.60;;;;;;;;;;7424321;19;19950;-80
2024/02/16 14:25:54;;;;;;;5.25;1.55;;;;;;;;;;7424641;19;19918;-80
2024/02/16 14:28:41;;;;;;;2.85;1.88;;;;;;;;;;7421573;19;19933;-81
2024/02/16 14:31:25;;;;;;;5.47;1.40;;;;;;;;;;7423729;19;19959;-80
2024/02/16 14:34:10;;;;;;;3.55;1.50;;;;;;;;;;7427790;19;19915;-81
2024/02/16 14:36:54;;;;;;;3.80;1.83;;;;;;;;;;7422436;19;19926;-80
2024/02/16 14:39:41;;;;;;;3.53;1.33;;;;;;;;;;7424510;19;19921;-80
2024/02/16 14:42:28;;;;;;;5.20;1.35;;;;;;;;;;7426458;19;19945;-80
2024/02/16 14:45:21;;;;;;;4.38;1.27;;;;;;;;;;7426287;19;19914;-80
2024/02/16 14:48:08;;;;;;;4.05;1.10;;;;;;;;;;7424840;19;19929;-80
2024/02/16 14:50:57;;;;;;;3.33;1.15;;;;;;;;;;7426328;19;19922;-80
2024/02/16 14:53:42;;;;;;;4.03;1.27;;;;;;;;;;7422544;19;19990;-80
2024/02/16 14:56:28;;;;;;;3.03;0.95;;;;;;;;;;7423902;19;19933;-80
2024/02/16 14:59:13;;;;;;;2.63;1.40;;;;;;;;;;7425674;19;19914;-80
2024/02/16 15:02:01;;;;;;;2.50;1.17;;;;;;;;;;7424785;19;19930;-80
2024/02/16 15:04:45;;;;;;;1.98;1.20;;;;;;;;;;7426260;19;19986;-80
2024/02/16 15:07:32;;;;;;;1.25;0.90;;;;;;;;;;7425078;19;19921;-80
2024/02/16 15:10:16;;;;;;;3.53;1.33;;;;;;;;;;7423398;19;19914;-80
2024/02/16 15:13:05;;;;;;;2.38;1.17;;;;;;;;;;7422385;19;19907;-81
2024/02/16 15:15:50;;;;;;;2.70;1.10;;;;;;;;;;7423857;19;19918;-80
2024/02/16 15:18:36;;;;;;;3.97;1.35;;;;;;;;;;7423722;19;19926;-80
2024/02/16 15:21:23;;;;;;;4.93;1.40;;;;;;;;;;7419815;19;19925;-80
2024/02/16 15:24:23;;;;;;;3.33;1.20;;;;;;;;;;7421555;19;19970;-80
2024/02/16 15:27:21;;;;;;;4.30;1.70;;;;;;;;;;7419999;19;19914;-80
2024/02/16 15:30:15;;;;;;;2.13;1.10;;;;;;;;;;7420186;19;19921;-80
2024/02/16 15:33:08;;;;;;;5.53;1.20;;;;;;;;;;7422946;19;19947;-80
2024/02/16 15:36:27;;;;;;;1.83;0.93;;;;;;;;;;7424280;19;19942;-80
2024/02/16 15:39:14;;;;;;;3.65;1.10;;;;;;;;;;7423964;19;19922;-80
2024/02/16 15:42:00;;;;;;;4.78;1.35;;;;;;;;;;7422849;19;19974;-86
2024/02/16 15:44:47;;;;;;;2.90;1.52;;;;;;;;;;7406204;19;19929;-85
2024/02/16 15:47:34;;;;;;;2.58;1.23;;;;;;;;;;7409574;19;19922;-85
2024/02/16 15:50:18;;;;;;;3.15;1.15;;;;;;;;;;7408598;19;19921;-86
2024/02/16 15:53:06;;;;;;;2.33;0.98;;;;;;;;;;7409267;19;19918;-86
2024/02/16 15:55:52;;;;;;;3.08;1.50;;;;;;;;;;7406512;19;20341;-86
2024/02/16 15:58:39;;;;;;;4.18;2.38;;;;;;;;;;7408782;19;19960;-86
2024/02/16 16:01:25;;;;;;;4.05;1.60;;;;;;;;;;7409297;19;19982;-85
2024/02/16 16:04:13;;;;;;;6.43;1.63;;;;;;;;;;7407294;19;20397;-85
2024/02/16 16:07:00;;;;;;;3.60;1.45;;;;;;;;;;7407967;19;19918;-85
2024/02/16 16:09:49;;;;;;;3.30;1.77;;;;;;;;;;7408211;19;19906;-86
2024/02/16 16:12:33;;;;;;;3.25;1.52;;;;;;;;;;7410623;19;20257;-85
2024/02/16 16:15:19;;;;;;;6.65;1.90;;;;;;;;;;7409141;19;19922;-85
2024/02/16 16:18:07;;;;;;;3.72;2.03;;;;;;;;;;7409429;19;19929;-85
2024/02/16 16:20:56;;;;;;;5.63;1.90;;;;;;;;;;7410332;19;19918;-85
2024/02/16 16:23:40;;;;;;;6.93;2.45;;;;;;;;;;7414512;19;19947;-85
2024/02/16 16:26:27;;;;;;;8.10;1.63;;;;;;;;;;7419577;19;20002;-86
2024/02/16 16:29:15;;;;;;;4.68;1.90;;;;;;;;;;7436839;19;19922;-85
2024/02/16 16:31:59;;;;;;;2.33;1.55;;;;;;;;;;7430125;19;19927;-85
2024/02/16 16:34:46;;;;;;;3.67;1.33;;;;;;;;;;7409841;19;19927;-85
2024/02/16 16:37:33;;;;;;;3.22;1.50;;;;;;;;;;7408660;19;20008;-85
2024/02/16 16:40:17;;;;;;;3.08;1.52;;;;;;;;;;7407390;19;20282;-85
2024/02/16 16:43:04;;;;;;;5.43;1.80;;;;;;;;;;7408106;19;19950;-85
2024/02/16 16:45:51;;;;;;;2.97;1.52;;;;;;;;;;7410919;19;20426;-85
2024/02/16 16:48:35;;;;;;;3.67;2.35;;;;;;;;;;7409480;19;19910;-85
2024/02/16 16:51:24;;;;;;;5.35;1.70;;;;;;;;;;7411375;19;19926;-85
2024/02/16 16:54:12;;;;;;;4.95;2.10;;;;;;;;;;7411299;19;20547;-85
2024/02/16 16:57:01;;;;;;;3.58;1.60;;;;;;;;;;7410619;19;19911;-85